createdAt,value
2023-02-17T00:01:34.852Z,5.77
2023-02-17T00:04:04.934Z,6.13
2023-02-17T00:06:33.064Z,5.97
2023-02-17T00:09:02.057Z,6.27
2023-02-17T00:11:30.289Z,5.77
2023-02-17T00:14:00.460Z,5.43
2023-02-17T00:16:29.436Z,6.10
2023-02-17T00:19:01.667Z,5.23
2023-02-17T00:21:31.871Z,5.47
2023-02-17T00:24:02.308Z,5.80
2023-02-17T00:26:30.006Z,5.93
2023-02-17T00:28:58.735Z,5.60
2023-02-17T00:31:26.451Z,6.20
2023-02-17T00:33:56.114Z,6.27
2023-02-17T00:36:24.164Z,6.17
2023-02-17T00:38:51.898Z,6.27
2023-02-17T00:41:20.183Z,6.20
2023-02-17T00:43:48.449Z,6.03
2023-02-17T00:46:18.005Z,5.73
2023-02-17T00:48:45.666Z,5.00
2023-02-17T00:51:13.214Z,5.67
2023-02-17T00:53:41.615Z,5.77
2023-02-17T00:56:09.628Z,6.20
2023-02-17T00:58:37.839Z,4.97
2023-02-17T01:01:06.591Z,5.60
2023-02-17T01:03:34.280Z,5.90
2023-02-17T01:06:09.732Z,5.30
2023-02-17T01:08:37.405Z,5.20
2023-02-17T01:11:04.852Z,5.80
2023-02-17T01:13:32.746Z,5.60
2023-02-17T01:16:00.248Z,6.20
2023-02-17T01:18:28.363Z,6.23
2023-02-17T01:20:55.868Z,6.77
2023-02-17T01:23:23.341Z,5.83
2023-02-17T01:25:50.951Z,7.17
2023-02-17T01:28:21.336Z,6.90
2023-02-17T01:30:49.818Z,6.10
2023-02-17T01:33:17.369Z,5.67
2023-02-17T01:35:44.765Z,6.80
2023-02-17T01:38:12.170Z,6.10
2023-02-17T01:40:49.886Z,6.43
2023-02-17T01:43:18.473Z,6.30
2023-02-17T01:46:07.777Z,6.30
2023-02-17T01:48:49.394Z,6.47
2023-02-17T01:51:28.844Z,5.37
2023-02-17T01:54:03.454Z,5.70
2023-02-17T01:56:33.776Z,5.87
2023-02-17T01:59:05.824Z,5.97
2023-02-17T02:01:33.739Z,7.22
2023-02-17T02:04:04.999Z,6.30
2023-02-17T02:06:35.044Z,6.23
2023-02-17T02:09:34.522Z,6.80
2023-02-17T02:12:02.354Z,6.10
2023-02-17T02:14:30.283Z,5.57
2023-02-17T02:17:16.514Z,5.83
2023-02-17T02:20:02.571Z,5.10
2023-02-17T02:22:42.183Z,6.50
2023-02-17T02:25:09.721Z,6.40
2023-02-17T02:28:10.242Z,6.17
2023-02-17T02:31:05.565Z,7.40
2023-02-17T02:33:38.245Z,6.10
2023-02-17T02:38:40.349Z,6.40
2023-02-17T02:41:22.717Z,6.60
2023-02-17T02:43:50.444Z,7.03
2023-02-17T02:46:17.812Z,7.30
2023-02-17T02:48:45.959Z,8.07
2023-02-17T02:51:39.551Z,8.43
2023-02-17T02:54:25.035Z,8.30
2023-02-17T02:57:04.302Z,8.63
2023-02-17T03:00:07.002Z,8.60
2023-02-17T03:02:55.954Z,8.52
2023-02-17T03:05:49.843Z,8.97
2023-02-17T03:08:31.041Z,9.20
2023-02-17T03:10:58.744Z,8.97
2023-02-17T03:13:26.182Z,9.13
2023-02-17T03:15:53.844Z,9.30
2023-02-17T03:18:21.235Z,9.47
2023-02-17T03:20:57.290Z,9.30
2023-02-17T03:23:24.655Z,10.90
2023-02-17T03:25:52.149Z,9.37
2023-02-17T03:28:19.424Z,10.17
2023-02-17T03:30:46.792Z,10.30
2023-02-17T03:33:14.253Z,10.17
2023-02-17T03:35:41.619Z,10.73
2023-02-17T03:38:08.931Z,10.60
2023-02-17T03:40:36.254Z,10.93
2023-02-17T03:43:03.703Z,10.40
2023-02-17T03:45:31.223Z,10.53
2023-02-17T03:47:58.560Z,11.63
2023-02-17T03:50:26.014Z,11.17
2023-02-17T03:52:53.428Z,11.93
2023-02-17T03:55:20.925Z,11.30
2023-02-17T03:57:48.293Z,10.63
2023-02-17T04:00:16.067Z,11.13
2023-02-17T04:02:44.299Z,11.80
2023-02-17T04:05:12.064Z,12.07
2023-02-17T04:07:39.766Z,12.40
2023-02-17T04:10:09.536Z,12.67
2023-02-17T04:12:37.469Z,12.40
2023-02-17T04:15:05.514Z,12.33
2023-02-17T04:17:33.053Z,11.90
2023-02-17T04:20:00.555Z,12.70
2023-02-17T04:22:28.066Z,11.93
2023-02-17T04:24:55.730Z,12.50
2023-02-17T04:27:23.973Z,12.93
2023-02-17T04:29:52.125Z,13.27
2023-02-17T04:32:19.674Z,12.57
2023-02-17T04:34:47.146Z,12.87
2023-02-17T04:37:14.673Z,11.70
2023-02-17T04:39:42.216Z,12.73
2023-02-17T04:42:09.731Z,13.07
2023-02-17T04:44:37.193Z,12.53
2023-02-17T04:47:05.122Z,12.87
2023-02-17T04:49:32.795Z,13.37
2023-02-17T04:52:00.381Z,12.83
2023-02-17T04:54:27.839Z,13.10
2023-02-17T04:56:56.719Z,12.50
2023-02-17T04:59:25.607Z,12.13
2023-02-17T05:01:53.226Z,12.20
2023-02-17T05:04:21.036Z,12.20
2023-02-17T05:06:48.698Z,12.47
2023-02-17T05:09:16.486Z,12.37
2023-02-17T05:11:44.179Z,12.77
2023-02-17T05:14:11.987Z,13.20
2023-02-17T05:16:39.711Z,13.90
2023-02-17T05:19:07.254Z,13.50
2023-02-17T05:21:34.782Z,13.20
2023-02-17T05:24:02.484Z,13.03
2023-02-17T05:26:30.393Z,12.90
2023-02-17T05:28:57.893Z,13.47
2023-02-17T05:31:25.678Z,15.63
2023-02-17T05:33:55.612Z,12.87
2023-02-17T05:36:23.273Z,12.10
2023-02-17T05:38:51.857Z,12.93
2023-02-17T05:41:20.016Z,12.40
2023-02-17T05:43:48.181Z,11.93
2023-02-17T05:46:16.105Z,11.90
2023-02-17T05:48:44.510Z,11.00
2023-02-17T05:51:14.069Z,10.07
2023-02-17T05:53:41.575Z,11.77
2023-02-17T05:56:09.574Z,10.60
2023-02-17T05:58:37.315Z,10.97
2023-02-17T06:01:12.108Z,10.27
2023-02-17T06:03:40.161Z,10.63
2023-02-17T06:06:08.496Z,10.37
2023-02-17T06:08:36.937Z,11.20
2023-02-17T06:11:04.906Z,11.17
2023-02-17T06:13:35.751Z,11.10
2023-02-17T06:16:04.168Z,10.70
2023-02-17T06:18:33.075Z,11.47
2023-02-17T06:21:00.795Z,11.20
2023-02-17T06:23:28.837Z,10.93
2023-02-17T06:25:56.795Z,11.50
2023-02-17T06:28:24.416Z,11.43
2023-02-17T06:30:52.183Z,13.00
2023-02-17T06:33:19.790Z,10.90
2023-02-17T06:35:51.779Z,11.57
2023-02-17T06:38:19.713Z,10.98
2023-02-17T06:40:47.399Z,11.70
2023-02-17T06:43:14.943Z,11.40
2023-02-17T06:45:42.552Z,11.43
2023-02-17T06:48:10.935Z,12.07
2023-02-17T06:50:38.926Z,10.73
2023-02-17T06:53:06.486Z,11.53
2023-02-17T06:55:35.684Z,11.07
2023-02-17T06:58:03.506Z,12.20
2023-02-17T07:00:31.351Z,12.10
2023-02-17T07:02:59.076Z,12.17
2023-02-17T07:05:26.725Z,11.88
2023-02-17T07:07:56.209Z,13.00
2023-02-17T07:10:23.695Z,8.13
2023-02-17T07:12:52.019Z,11.43
2023-02-17T07:15:22.375Z,11.23
2023-02-17T07:17:50.446Z,10.95
2023-02-17T07:20:18.084Z,6.53
2023-02-17T07:22:45.801Z,9.35
2023-02-17T07:25:13.413Z,6.60
2023-02-17T07:27:40.960Z,8.43
2023-02-17T07:30:09.171Z,8.25
2023-02-17T07:32:36.916Z,7.22
2023-02-17T07:35:06.764Z,7.63
2023-02-17T07:37:37.546Z,7.50
2023-02-17T07:40:05.800Z,7.28
2023-02-17T07:42:33.341Z,8.77
2023-02-17T07:45:00.796Z,8.77
2023-02-17T07:47:28.293Z,8.70
2023-02-17T07:49:56.871Z,8.32
2023-02-17T07:52:24.367Z,7.40
2023-02-17T07:54:51.896Z,7.20
2023-02-17T07:57:19.843Z,8.05
2023-02-17T07:59:48.405Z,8.40
2023-02-17T08:02:16.161Z,8.10
2023-02-17T08:04:44.317Z,8.52
2023-02-17T08:07:11.924Z,8.68
2023-02-17T08:10:00.173Z,8.40
2023-02-17T08:12:46.442Z,8.07
2023-02-17T08:15:15.418Z,8.60
2023-02-17T08:17:44.559Z,9.70
2023-02-17T08:20:13.712Z,9.25
2023-02-17T08:22:41.502Z,8.35
2023-02-17T08:25:09.299Z,8.13
2023-02-17T08:27:37.389Z,8.05
2023-02-17T08:30:05.504Z,8.15
2023-02-17T08:32:33.114Z,8.02
2023-02-17T08:35:01.943Z,8.25
2023-02-17T08:37:33.032Z,8.73
2023-02-17T08:40:00.621Z,8.15
2023-02-17T08:42:28.621Z,8.02
2023-02-17T08:44:56.579Z,8.70
2023-02-17T08:47:24.711Z,9.27
2023-02-17T08:49:52.356Z,10.35
2023-02-17T08:52:19.893Z,9.07
2023-02-17T08:54:47.526Z,9.02
2023-02-17T08:57:15.166Z,8.45
2023-02-17T08:59:42.734Z,8.32
2023-02-17T09:02:11.586Z,8.60
2023-02-17T09:04:39.158Z,8.40
2023-02-17T09:07:10.812Z,8.95
2023-02-17T09:09:38.393Z,9.65
2023-02-17T09:12:06.317Z,10.20
2023-02-17T09:14:34.270Z,10.65
2023-02-17T09:17:01.961Z,10.43
2023-02-17T09:19:29.519Z,10.60
2023-02-17T09:21:57.220Z,10.18
2023-02-17T09:24:26.678Z,10.95
2023-02-17T09:26:54.469Z,10.45
2023-02-17T09:29:22.048Z,10.38
2023-02-17T09:31:49.691Z,9.20
2023-02-17T09:34:17.486Z,9.90
2023-02-17T09:36:45.565Z,10.15
2023-02-17T09:39:14.371Z,9.63
2023-02-17T09:41:50.394Z,9.48
2023-02-17T09:44:26.244Z,8.52
2023-02-17T09:47:02.492Z,7.80
2023-02-17T09:49:46.054Z,8.23
2023-02-17T09:52:32.280Z,7.43
2023-02-17T09:55:22.824Z,8.02
2023-02-17T09:57:58.011Z,8.55
2023-02-17T10:00:53.936Z,9.18
2023-02-17T10:03:41.037Z,9.23
2023-02-17T10:06:33.048Z,8.95
2023-02-17T10:09:33.542Z,8.57
2023-02-17T10:12:19.278Z,10.73
2023-02-17T10:14:52.126Z,9.38
2023-02-17T10:20:17.058Z,7.65
2023-02-17T10:22:50.924Z,8.48
2023-02-17T10:25:42.659Z,8.45
2023-02-17T10:28:17.104Z,9.20
2023-02-17T10:31:12.806Z,10.15
2023-02-17T10:33:55.509Z,10.25
2023-02-17T10:36:43.187Z,8.77
2023-02-17T10:39:23.407Z,9.20
2023-02-17T10:41:52.162Z,10.00
2023-02-17T10:44:23.582Z,9.43
2023-02-17T10:46:53.851Z,10.73
2023-02-17T10:49:32.510Z,10.85
2023-02-17T10:52:10.325Z,11.48
2023-02-17T10:54:53.220Z,12.13
2023-02-17T10:57:26.139Z,11.32
2023-02-17T10:59:54.579Z,12.70
2023-02-17T11:02:33.730Z,14.52
2023-02-17T11:05:01.492Z,13.50
2023-02-17T11:07:42.148Z,12.23
2023-02-17T11:10:23.173Z,12.75
2023-02-17T11:12:51.167Z,13.50
2023-02-17T11:15:22.382Z,13.23
2023-02-17T11:17:50.915Z,12.57
2023-02-17T11:20:21.633Z,11.40
2023-02-17T11:23:15.572Z,15.63
2023-02-17T11:25:54.789Z,11.25
2023-02-17T11:28:24.229Z,19.42
2023-02-17T11:30:56.171Z,12.38
2023-02-17T11:33:31.606Z,12.32
2023-02-17T11:36:00.421Z,13.38
2023-02-17T11:38:41.250Z,13.27
2023-02-17T11:41:11.196Z,11.05
2023-02-17T11:43:40.195Z,11.63
2023-02-17T11:46:35.293Z,11.82
2023-02-17T11:49:38.849Z,11.57
2023-02-17T11:55:15.756Z,12.20
2023-02-17T11:58:12.050Z,11.73
2023-02-17T12:01:01.257Z,11.27
2023-02-17T12:03:41.726Z,14.40
2023-02-17T12:06:21.886Z,13.48
2023-02-17T12:09:05.216Z,16.83
2023-02-17T12:11:55.729Z,16.50
2023-02-17T12:14:59.075Z,14.90
2023-02-17T12:17:37.121Z,13.93
2023-02-17T12:20:16.802Z,15.30
2023-02-17T12:23:13.447Z,15.70
2023-02-17T12:25:50.890Z,16.08
2023-02-17T12:28:49.038Z,15.98
2023-02-17T12:31:54.155Z,14.27
2023-02-17T12:34:42.250Z,14.70
2023-02-17T12:37:23.150Z,14.48
2023-02-17T12:40:04.251Z,14.57
2023-02-17T12:42:43.940Z,14.52
2023-02-17T12:45:14.282Z,13.32
2023-02-17T12:47:57.335Z,11.52
2023-02-17T12:52:57.753Z,16.77
2023-02-17T12:55:48.606Z,12.10
2023-02-17T12:58:25.838Z,10.88
2023-02-17T13:01:14.272Z,10.32
2023-02-17T13:03:53.971Z,12.57
2023-02-17T13:06:32.445Z,12.95
2023-02-17T13:09:23.107Z,12.43
2023-02-17T13:11:50.873Z,11.13
2023-02-17T13:14:38.866Z,10.60
2023-02-17T13:17:06.402Z,11.55
2023-02-17T13:19:38.319Z,10.00
2023-02-17T13:22:06.006Z,10.90
2023-02-17T13:24:35.032Z,9.63
2023-02-17T13:27:34.410Z,14.85
2023-02-17T13:30:11.226Z,10.60
2023-02-17T13:32:40.092Z,10.10
2023-02-17T13:35:26.176Z,10.30
2023-02-17T13:37:54.217Z,12.02
2023-02-17T13:40:22.748Z,12.73
2023-02-17T13:43:10.399Z,11.73
2023-02-17T13:45:49.935Z,11.35
2023-02-17T13:48:24.009Z,11.63
2023-02-17T13:51:00.860Z,12.18
2023-02-17T13:53:41.969Z,11.95
2023-02-17T13:56:30.538Z,11.55
2023-02-17T13:59:18.574Z,12.07
2023-02-17T14:01:47.892Z,10.40
2023-02-17T14:04:30.676Z,9.93
2023-02-17T14:07:05.109Z,10.00
2023-02-17T14:09:35.000Z,9.88
2023-02-17T14:12:04.628Z,10.30
2023-02-17T14:14:35.268Z,9.82
2023-02-17T14:17:07.489Z,11.40
2023-02-17T14:19:49.196Z,8.63
2023-02-17T14:22:30.759Z,8.45
2023-02-17T14:24:59.402Z,9.63
2023-02-17T14:27:27.080Z,9.43
2023-02-17T14:29:54.731Z,10.85
2023-02-17T14:32:37.948Z,9.40
2023-02-17T14:35:09.899Z,9.35
2023-02-17T14:37:38.148Z,9.45
2023-02-17T14:40:24.746Z,9.20
2023-02-17T14:42:52.616Z,9.00
2023-02-17T14:45:20.341Z,9.05
2023-02-17T14:47:48.406Z,9.32
2023-02-17T14:50:19.232Z,8.70
2023-02-17T14:52:51.812Z,8.70
2023-02-17T14:55:36.860Z,10.07
2023-02-17T14:58:05.694Z,10.60
2023-02-17T15:00:33.235Z,10.25
2023-02-17T15:03:01.052Z,11.13
2023-02-17T15:05:29.950Z,10.77
2023-02-17T15:08:01.125Z,10.55
2023-02-17T15:10:30.090Z,10.55
2023-02-17T15:12:57.688Z,10.70
2023-02-17T15:15:28.682Z,10.32
2023-02-17T15:17:56.222Z,10.98
2023-02-17T15:20:24.792Z,12.02
2023-02-17T15:22:53.015Z,11.98
2023-02-17T15:25:24.545Z,11.52
2023-02-17T15:27:52.202Z,12.23
2023-02-17T15:30:21.357Z,12.70
2023-02-17T15:32:49.164Z,13.80
2023-02-17T15:35:23.185Z,10.95
2023-02-17T15:37:51.817Z,12.27
2023-02-17T15:40:25.066Z,11.48
2023-02-17T15:43:03.532Z,12.20
2023-02-17T15:45:31.778Z,11.70
2023-02-17T15:48:22.236Z,11.20
2023-02-17T15:50:49.859Z,10.88
2023-02-17T15:53:19.942Z,11.07
2023-02-17T15:55:48.278Z,11.30
2023-02-17T15:58:22.384Z,11.38
2023-02-17T16:00:52.324Z,11.55
2023-02-17T16:03:19.840Z,12.70
2023-02-17T16:05:48.143Z,11.57
2023-02-17T16:08:18.396Z,11.48
2023-02-17T16:10:47.345Z,10.00
2023-02-17T16:13:19.151Z,11.15
2023-02-17T16:15:49.134Z,10.65
2023-02-17T16:18:24.190Z,10.95
2023-02-17T16:20:52.317Z,11.80
2023-02-17T16:23:20.189Z,11.48
2023-02-17T16:25:48.883Z,10.70
2023-02-17T16:28:20.056Z,12.13
2023-02-17T16:30:49.783Z,11.00
2023-02-17T16:33:17.969Z,10.90
2023-02-17T16:35:45.920Z,10.68
2023-02-17T16:38:22.603Z,11.40
2023-02-17T16:40:52.978Z,11.07
2023-02-17T16:43:25.796Z,11.02
2023-02-17T16:45:55.753Z,10.63
2023-02-17T16:48:26.207Z,10.90
2023-02-17T16:50:54.367Z,11.67
2023-02-17T16:53:22.355Z,10.23
2023-02-17T16:55:55.632Z,11.82
2023-02-17T16:58:25.775Z,11.27
2023-02-17T17:00:55.193Z,11.37
2023-02-17T17:03:23.221Z,11.63
2023-02-17T17:05:52.865Z,11.10
2023-02-17T17:08:21.964Z,11.67
2023-02-17T17:10:50.016Z,11.10
2023-02-17T17:13:18.637Z,11.27
2023-02-17T17:15:47.361Z,12.40
2023-02-17T17:18:24.020Z,11.33
2023-02-17T17:20:51.666Z,11.82
2023-02-17T17:23:19.385Z,11.77
2023-02-17T17:25:47.497Z,11.77
2023-02-17T17:28:17.305Z,12.13
2023-02-17T17:30:46.012Z,12.77
2023-02-17T17:33:13.722Z,13.27
2023-02-17T17:35:41.644Z,13.33
2023-02-17T17:38:14.286Z,14.40
2023-02-17T17:40:50.829Z,13.90
2023-02-17T17:43:23.836Z,14.03
2023-02-17T17:45:52.374Z,14.90
2023-02-17T17:48:20.513Z,14.83
2023-02-17T17:50:49.494Z,13.40
2023-02-17T17:53:17.065Z,13.73
2023-02-17T17:55:44.735Z,13.37
2023-02-17T17:58:12.313Z,13.77
2023-02-17T18:00:39.872Z,13.00
2023-02-17T18:03:07.552Z,13.17
2023-02-17T18:05:36.778Z,13.60
2023-02-17T18:08:04.523Z,13.63
2023-02-17T18:10:32.573Z,12.70
2023-02-17T18:13:00.143Z,14.00
2023-02-17T18:15:27.998Z,14.23
2023-02-17T18:17:55.647Z,13.57
2023-02-17T18:20:23.250Z,13.60
2023-02-17T18:22:51.107Z,14.27
2023-02-17T18:25:19.272Z,14.13
2023-02-17T18:27:48.263Z,14.20
2023-02-17T18:30:19.107Z,14.33
2023-02-17T18:32:47.276Z,14.30
2023-02-17T18:35:15.688Z,14.43
2023-02-17T18:37:43.896Z,14.57
2023-02-17T18:40:14.238Z,15.47
2023-02-17T18:42:44.756Z,15.77
2023-02-17T18:45:13.297Z,13.60
2023-02-17T18:47:41.096Z,14.83
2023-02-17T18:50:09.793Z,14.97
2023-02-17T18:52:39.406Z,16.20
2023-02-17T18:55:10.013Z,11.95
2023-02-17T18:57:37.717Z,15.60
2023-02-17T19:00:09.432Z,14.63
2023-02-17T19:02:41.000Z,15.23
2023-02-17T19:05:11.064Z,16.27
2023-02-17T19:07:39.237Z,15.97
2023-02-17T19:10:07.390Z,14.80
2023-02-17T19:12:38.094Z,15.27
2023-02-17T19:15:06.761Z,15.27
2023-02-17T19:17:34.397Z,16.13
2023-02-17T19:20:02.027Z,15.90
2023-02-17T19:22:31.404Z,16.33
2023-02-17T19:24:59.342Z,15.60
2023-02-17T19:27:27.003Z,16.23
2023-02-17T19:29:54.589Z,16.77
2023-02-17T19:32:22.126Z,16.77
2023-02-17T19:34:49.676Z,15.70
2023-02-17T19:37:17.340Z,16.43
2023-02-17T19:39:45.765Z,15.23
2023-02-17T19:42:13.348Z,16.63
2023-02-17T19:44:40.830Z,16.27
2023-02-17T19:47:08.775Z,16.20
2023-02-17T19:49:36.511Z,16.00
2023-02-17T19:52:04.300Z,15.73
2023-02-17T19:54:31.889Z,16.53
2023-02-17T19:56:59.635Z,16.27
2023-02-17T19:59:27.150Z,17.37
2023-02-17T20:01:58.007Z,15.43
2023-02-17T20:04:25.703Z,17.20
2023-02-17T20:06:54.390Z,16.47
2023-02-17T20:09:23.270Z,16.67
2023-02-17T20:11:53.297Z,16.67
2023-02-17T20:14:21.897Z,16.40
2023-02-17T20:16:49.988Z,16.20
2023-02-17T20:19:17.663Z,17.03
2023-02-17T20:21:46.088Z,17.03
2023-02-17T20:24:14.367Z,16.33
2023-02-17T20:26:45.538Z,16.80
2023-02-17T20:29:14.029Z,16.47
2023-02-17T20:31:42.157Z,15.83
2023-02-17T20:34:29.283Z,14.13
2023-02-17T20:36:58.563Z,16.27
2023-02-17T20:39:26.336Z,15.23
2023-02-17T20:41:55.833Z,13.33
2023-02-17T20:44:28.842Z,14.10
2023-02-17T20:46:57.472Z,15.60
2023-02-17T20:49:25.714Z,14.93
2023-02-17T20:51:53.753Z,12.73
2023-02-17T20:54:25.763Z,13.20
2023-02-17T20:56:53.797Z,15.00
2023-02-17T20:59:21.571Z,7.73
2023-02-17T21:01:49.425Z,15.53
2023-02-17T21:04:17.118Z,15.10
2023-02-17T21:06:45.746Z,16.23
2023-02-17T21:09:15.858Z,15.30
2023-02-17T21:11:44.270Z,16.30
2023-02-17T21:14:12.062Z,15.33
2023-02-17T21:16:39.990Z,16.30
2023-02-17T21:19:07.537Z,14.40
2023-02-17T21:21:35.883Z,15.90
2023-02-17T21:24:03.729Z,15.63
2023-02-17T21:26:32.512Z,13.20
2023-02-17T21:29:00.017Z,15.97
2023-02-17T21:31:30.285Z,15.83
2023-02-17T21:34:01.018Z,16.57
2023-02-17T21:36:29.450Z,15.10
2023-02-17T21:38:57.539Z,19.13
2023-02-17T21:41:27.799Z,15.47
2023-02-17T21:44:14.087Z,19.43
2023-02-17T21:46:43.248Z,13.10
2023-02-17T21:49:13.659Z,13.53
2023-02-17T21:51:41.743Z,19.53
2023-02-17T21:54:10.229Z,17.30
2023-02-17T21:56:38.220Z,17.53
2023-02-17T21:59:06.457Z,16.80
2023-02-17T22:01:34.310Z,17.17
2023-02-17T22:04:03.225Z,18.63
2023-02-17T22:06:34.039Z,17.87
2023-02-17T22:09:02.132Z,16.73
2023-02-17T22:11:32.470Z,24.17
2023-02-17T22:14:02.293Z,19.33
2023-02-17T22:16:31.924Z,22.73
2023-02-17T22:19:00.365Z,21.67
2023-02-17T22:21:28.213Z,18.90
2023-02-17T22:23:57.271Z,19.20
2023-02-17T22:26:27.349Z,16.40
2023-02-17T22:28:55.300Z,18.30
2023-02-17T22:31:25.547Z,18.63
2023-02-17T22:33:53.556Z,17.93
2023-02-17T22:36:23.557Z,19.23
2023-02-17T22:38:52.625Z,19.23
2023-02-17T22:41:22.798Z,19.33
2023-02-17T22:43:51.767Z,18.67
2023-02-17T22:46:21.873Z,19.43
2023-02-17T22:48:51.574Z,18.67
2023-02-17T22:51:21.825Z,17.40
2023-02-17T22:53:49.767Z,18.00
2023-02-17T22:56:17.501Z,18.20
2023-02-17T22:58:45.111Z,17.87
2023-02-17T23:01:15.729Z,17.53
2023-02-17T23:03:44.434Z,16.80
2023-02-17T23:06:16.117Z,18.73
2023-02-17T23:08:43.956Z,18.43
2023-02-17T23:11:13.941Z,17.17
2023-02-17T23:13:41.964Z,18.13
2023-02-17T23:16:11.569Z,17.50
2023-02-17T23:18:39.107Z,17.73
2023-02-17T23:21:12.165Z,17.43
2023-02-17T23:23:40.036Z,16.03
2023-02-17T23:26:07.936Z,17.53
2023-02-17T23:28:36.950Z,16.47
2023-02-17T23:31:04.604Z,17.43
2023-02-17T23:33:32.202Z,17.33
2023-02-17T23:35:59.946Z,17.47
2023-02-17T23:38:27.461Z,17.43
2023-02-17T23:40:55.093Z,17.57
2023-02-17T23:43:25.966Z,17.20
2023-02-17T23:45:56.849Z,16.80
2023-02-17T23:48:24.426Z,17.13
2023-02-17T23:50:59.646Z,16.97
2023-02-17T23:53:27.865Z,15.90
2023-02-17T23:56:14.342Z,16.30
2023-02-17T23:58:43.610Z,17.07
